Latest Weather Observations for Cape Borda

IDS60801

Issued at 4:01 am CST Thursday 3 September 2015 (issued every 30 minutes, with the page automatically refreshed every 10 minutes)

About weather observations | Map of weather stations | Latest weather observations for SA | Other Formats
Station Details ID: 022823 Name: CAPE BORDA Lat: -35.75 Lon: 136.60 Height: 158.0 m
Data from the previous 72 hours. | See also: Recent months at Cape Borda
Date/Time
CST
Temp
°C
App
Temp
°C
Dew
Point
Rel
Hum
%
Delta-T
°C
Wind Press
QNH
hPa
Press
MSL
hPa
Rain
since 9 am
mm
Dir
 
Spd
km/h
Gust
km/h
Spd
kts
Gust
kts
03/04:00am 10.9 4.3 10.1 95 0.4 S 35 50 19 27 1015.8 - 6.0
03/03:50am 11.0 5.0 10.2 95 0.4 S 32 50 17 27 1015.7 - 6.0
03/03:30am 10.9 4.7 10.1 95 0.4 S 33 50 18 27 1015.4 - 6.0
03/03:00am 11.0 4.5 10.4 96 0.3 S 35 52 19 28 1014.8 1014.8 6.0
03/02:57am 11.0 4.9 10.4 96 0.3 S 33 52 18 28 1014.7 - 5.8
03/02:30am 11.2 5.3 10.6 96 0.3 S 32 44 17 24 1014.6 - 5.6
03/02:00am 11.3 4.1 10.7 96 0.3 S 39 57 21 31 1014.2 - 5.4
03/01:37am 11.3 5.5 10.9 97 0.2 SSW 32 50 17 27 1013.8 - 5.2
03/01:30am 11.3 5.5 10.9 97 0.2 S 32 46 17 25 1013.8 - 5.2
03/01:14am 11.4 5.5 11.0 97 0.2 S 33 52 18 28 1013.5 - 5.0
03/01:00am 11.5 5.2 10.9 96 0.3 S 35 50 19 27 1013.4 - 4.8
03/12:30am 11.4 5.6 10.8 96 0.3 S 32 56 17 30 1013.0 - 4.6
03/12:27am 11.4 6.3 10.6 95 0.4 S 28 50 15 27 1012.9 - 4.6
03/12:00am 11.3 6.4 10.1 92 0.6 S 26 35 14 19 1012.9 1013.0 4.2
 
Date/Time
CST
Temp
°C
App
Temp
°C
Dew
Point
Rel
Hum
%
Delta-T
°C
Wind Press
QNH
hPa
Press
MSL
hPa
Rain
since 9 am
mm
Dir
 
Spd
km/h
Gust
km/h
Spd
kts
Gust
kts
02/11:30pm 11.4 6.8 9.6 89 0.9 SSW 24 35 13 19 1012.7 - 4.0
02/11:00pm 11.0 6.3 9.2 89 0.9 SSW 24 33 13 18 1012.2 - 4.0
02/10:30pm 11.1 6.2 8.5 84 1.3 SSW 24 35 13 19 1011.6 - 4.0
02/10:00pm 10.8 5.8 8.2 84 1.3 SSW 24 35 13 19 1011.4 - 4.0
02/09:30pm 10.9 6.1 8.7 86 1.1 SSW 24 30 13 16 1010.8 - 4.0
02/09:00pm 10.3 5.7 8.3 87 1.0 SSW 22 30 12 16 1010.1 1010.1 4.0
02/08:30pm 10.7 5.0 8.5 86 1.1 S 28 39 15 21 1009.2 - 4.0
02/08:00pm 10.9 5.2 8.3 84 1.3 S 28 43 15 23 1008.7 - 4.0
02/07:30pm 10.6 4.5 8.2 85 1.2 S 30 43 16 23 1007.8 - 4.0
02/07:00pm 10.5 4.9 8.7 89 0.9 S 28 39 15 21 1007.1 - 4.0
02/06:30pm 10.5 5.6 8.3 86 1.1 S 24 39 13 21 1006.3 - 4.0
02/06:00pm 10.5 5.5 8.1 85 1.2 S 24 37 13 20 1005.7 1005.8 4.0
02/05:30pm 11.0 4.7 7.5 79 1.7 S 30 44 16 24 1004.8 - 4.0
02/05:00pm 10.8 4.8 8.6 86 1.1 S 30 43 16 23 1004.0 - 4.0
02/04:30pm 10.6 4.4 9.2 91 0.7 S 32 46 17 25 1003.5 - 4.0
02/04:00pm 12.4 5.9 8.0 74 2.2 S 32 44 17 24 1002.5 - 3.6
02/03:30pm 12.1 6.1 8.5 78 1.8 S 30 44 16 24 1001.8 - 3.6
02/03:00pm 12.2 6.2 8.8 80 1.7 S 30 43 16 23 1000.9 1000.9 3.6
02/02:30pm 11.3 6.9 10.3 94 0.5 S 24 33 13 18 1000.4 - 3.6
02/02:00pm 11.0 6.4 9.6 91 0.7 S 24 35 13 19 1000.2 - 2.8
02/01:30pm 12.6 8.9 8.0 73 2.3 SSE 17 26 9 14 999.8 - 0.6
02/01:00pm 12.9 9.0 8.8 76 2.1 ESE 19 28 10 15 999.5 - 0.6
02/12:30pm 11.9 7.7 9.8 87 1.1 ESE 22 30 12 16 999.5 - 0.6
02/12:00pm 10.8 6.0 9.0 89 0.9 ENE 24 33 13 18 999.5 999.5 0.6
02/11:30am 10.8 5.7 9.2 90 0.8 ENE 26 33 14 18 999.7 - 0.6
02/11:00am 10.4 5.7 9.4 93 0.5 NE 24 35 13 19 1000.0 - 0.6
02/10:30am 10.1 4.6 9.1 93 0.5 NNE 28 43 15 23 1000.0 - 0.6
02/10:00am 9.8 4.3 9.0 95 0.4 NNE 28 41 15 22 1000.1 - 0.6
02/09:30am 10.3 4.7 8.9 91 0.7 N 28 41 15 22 1000.4 - 0.2
02/09:00am 9.4 5.2 8.4 93 0.5 NNE 20 32 11 17 1000.5 1000.6 19.4
02/08:30am 10.3 4.7 8.9 91 0.7 N 28 41 15 22 1000.6 - 19.4
02/08:00am 9.9 5.1 8.9 93 0.5 N 24 41 13 22 1000.7 - 19.4
02/07:51am 9.2 3.5 8.2 93 0.5 N 28 54 15 29 1000.5 - 19.2
02/07:30am 10.2 3.8 8.6 90 0.8 N 32 43 17 23 1000.5 - 15.8
02/07:25am 10.4 4.5 9.0 91 0.7 N 30 50 16 27 1000.5 - 15.8
02/07:00am 8.4 2.7 6.9 90 0.7 NW 26 35 14 19 1001.0 - 14.8
02/06:41am 9.4 2.6 7.1 85 1.1 NNW 32 50 17 27 1000.6 - 13.2
02/06:30am 11.0 3.7 8.6 85 1.2 N 37 52 20 28 1000.3 - 13.2
02/06:00am 10.9 3.9 8.3 84 1.3 N 35 48 19 26 1000.2 1000.3 13.2
02/05:45am 10.8 4.6 9.2 90 0.8 N 32 50 17 27 1000.2 - 13.2
02/05:30am 10.8 4.5 9.0 89 0.9 N 32 46 17 25 1000.2 - 13.2
02/05:00am 10.7 4.3 9.3 91 0.7 N 33 46 18 25 1000.3 - 13.2
02/04:39am 11.2 4.9 8.8 85 1.2 N 32 50 17 27 1000.7 - 13.2
02/04:30am 11.2 4.7 8.8 85 1.2 N 33 50 18 27 1000.9 - 13.2
02/04:00am 11.2 5.1 8.4 83 1.4 N 30 44 16 24 1001.1 - 13.2
02/03:30am 11.2 4.7 8.2 82 1.5 N 32 46 17 25 1001.4 - 13.2
02/03:00am 11.3 4.8 8.3 82 1.5 N 32 44 17 24 1001.4 1001.4 13.2
02/02:49am 11.3 5.8 9.1 86 1.1 N 28 52 15 28 1001.8 - 13.2
02/02:30am 11.2 5.6 8.8 85 1.2 N 28 39 15 21 1002.2 - 13.2
02/02:00am 11.0 4.6 8.6 85 1.2 NNW 32 44 17 24 1002.6 - 13.2
02/01:30am 10.2 5.4 9.0 92 0.6 NNW 24 43 13 23 1002.7 - 13.0
02/01:00am 11.6 6.4 10.3 92 0.7 N 28 33 15 18 1003.0 - 12.6
02/12:30am 11.4 7.4 10.6 95 0.4 N 22 30 12 16 1002.8 - 12.6
02/12:00am 11.7 7.6 11.3 97 0.2 N 24 32 13 17 1003.2 1003.2 12.6
 
Date/Time
CST
Temp
°C
App
Temp
°C
Dew
Point
Rel
Hum
%
Delta-T
°C
Wind Press
QNH
hPa
Press
MSL
hPa
Rain
since 9 am
mm
Dir
 
Spd
km/h
Gust
km/h
Spd
kts
Gust
kts
01/11:30pm 11.5 5.7 10.9 96 0.3 N 32 50 17 27 1003.9 - 12.4
01/11:00pm 11.6 5.7 11.0 96 0.3 N 33 46 18 25 1004.4 - 11.8
01/10:30pm 11.6 5.3 11.0 96 0.3 N 35 50 19 27 1004.8 - 10.8
01/10:05pm 12.0 6.0 10.7 92 0.7 NNE 33 54 18 29 1004.7 - 9.0
01/10:00pm 12.2 6.4 10.9 92 0.7 NNE 32 46 17 25 1004.6 - 9.0
01/09:43pm 12.0 6.1 11.2 95 0.4 N 33 52 18 28 1004.9 - 9.0
01/09:30pm 12.1 5.8 11.2 94 0.5 N 35 50 19 27 1004.9 - 8.8
01/09:19pm 12.0 6.3 11.1 94 0.5 NNE 32 54 17 29 1005.1 - 8.6
01/09:00pm 12.1 6.7 11.0 93 0.6 NE 30 41 16 22 1005.2 1005.2 8.2
01/08:54pm 12.2 6.8 10.9 92 0.7 NE 30 48 16 26 1005.1 - 8.0
01/08:30pm 11.9 5.9 10.0 88 1.0 ENE 32 43 17 23 1004.5 - 7.6
01/08:00pm 11.4 5.3 9.6 89 0.9 ENE 32 46 17 25 1004.3 - 7.6
01/07:30pm 11.3 5.1 10.1 92 0.6 ENE 33 46 18 25 1004.0 - 7.6
01/07:00pm 11.7 5.3 10.6 93 0.6 NE 35 48 19 26 1004.1 - 7.6
01/06:30pm 11.2 4.9 9.8 91 0.7 NE 33 48 18 26 1004.2 - 7.6
01/06:00pm 11.7 6.0 11.3 97 0.2 ENE 32 43 17 23 1004.1 1004.1 7.6
01/05:30pm 11.9 6.7 11.5 97 0.2 NE 30 41 16 22 1004.5 - 7.6
01/05:07pm 11.8 6.5 11.4 97 0.2 NNE 30 48 16 26 1004.6 - 7.2
01/05:00pm 11.8 6.2 11.4 97 0.2 NNE 32 41 17 22 1004.6 - 7.2
01/04:30pm 11.8 6.1 11.8 100 0.0 NNE 33 46 18 25 1004.9 - 6.8
01/04:00pm 12.0 6.9 11.8 99 0.1 NNE 30 43 16 23 1005.5 - 5.8
01/03:39pm 12.0 7.2 11.6 97 0.2 NNE 28 46 15 25 1005.8 - 3.4
01/03:30pm 12.0 7.2 11.6 97 0.2 NNE 28 41 15 22 1005.9 - 2.4
01/03:00pm 12.2 8.1 11.6 96 0.3 NNE 24 32 13 17 1005.9 1006.0 2.2
01/02:30pm 12.3 8.6 11.6 95 0.4 N 22 35 12 19 1006.3 - 2.2
01/02:00pm 12.8 7.8 11.1 89 0.9 NNE 28 37 15 20 1006.8 - 1.0
01/01:30pm 12.9 8.3 9.6 80 1.7 NNE 24 35 13 19 1007.3 - 0.8
01/01:00pm 12.9 8.3 9.8 81 1.6 NE 24 35 13 19 1007.9 - 0.8
01/12:30pm 12.9 7.3 10.0 82 1.5 ENE 30 43 16 23 1008.3 - 0.8
01/12:00pm 13.2 7.9 9.9 80 1.7 ENE 28 41 15 22 1008.5 1008.5 0.8
01/11:30am 14.2 8.9 10.0 76 2.2 ENE 28 39 15 21 1009.0 - 0.8
01/11:00am 13.5 8.7 10.3 81 1.7 ENE 26 41 14 22 1009.2 - 0.8
01/10:30am 12.4 7.8 10.9 90 0.8 E 26 35 14 19 1009.3 - 0.8
01/10:00am 12.6 9.3 11.5 93 0.6 ENE 20 30 11 16 1010.6 - 0.8
01/09:30am 12.6 8.8 11.3 92 0.7 ENE 22 33 12 18 1010.7 - 0.4
01/09:00am 12.7 8.9 11.0 89 0.9 ENE 22 30 12 16 1010.8 1010.8 0.0
01/08:30am 12.5 8.4 11.6 94 0.5 ENE 24 33 13 18 1011.0 - 0.0
01/08:00am 12.7 9.0 11.6 93 0.6 ENE 22 30 12 16 1011.0 - 0.0
01/07:30am 12.7 8.7 11.8 94 0.5 ENE 24 32 13 17 1010.6 - 0.0
01/07:00am 12.6 9.2 11.3 92 0.7 ENE 20 28 11 15 1010.6 - 0.0
01/06:30am 13.0 10.0 11.9 93 0.6 NE 19 26 10 14 1010.5 - 0.0
01/06:00am 12.9 10.1 11.4 91 0.8 ENE 17 22 9 12 1010.6 1010.6 0.0
01/05:30am 12.8 9.3 10.9 88 1.0 NE 20 24 11 13 1011.0 - 0.0
01/05:00am 12.5 9.1 10.4 87 1.1 NE 19 24 10 13 1010.8 - 0.0
01/04:30am 12.5 8.8 10.2 86 1.2 ENE 20 28 11 15 1010.7 - 0.0
01/04:00am 12.6 8.0 9.7 82 1.5 ENE 24 33 13 18 1010.7 - 0.0
01/03:30am 12.6 8.3 9.3 80 1.7 ENE 22 30 12 16 1011.1 - 0.0
01/03:00am 12.6 9.2 9.1 79 1.8 NNE 17 24 9 13 1011.2 1011.3 0.0
01/02:30am 12.9 7.4 9.0 77 2.0 ENE 28 39 15 21 1011.8 - 0.0
01/02:00am 12.9 7.6 8.5 74 2.2 ENE 26 35 14 19 1012.1 - 0.0
01/01:30am 13.2 7.3 7.3 67 2.9 ENE 28 37 15 20 1012.6 - 0.0
01/01:00am 13.7 7.4 5.5 57 3.9 ENE 28 43 15 23 1013.0 - 0.0
01/12:30am 13.3 7.3 5.2 58 3.8 ENE 26 37 14 20 1013.1 - 0.0
01/12:00am 13.7 7.5 4.4 53 4.3 ENE 26 39 14 21 1013.4 1013.6 0.0
 
Date/Time
CST
Temp
°C
App
Temp
°C
Dew
Point
Rel
Hum
%
Delta-T
°C
Wind Press
QNH
hPa
Press
MSL
hPa
Rain
since 9 am
mm
Dir
 
Spd
km/h
Gust
km/h
Spd
kts
Gust
kts
31/11:30pm 13.3 7.7 5.5 59 3.7 ENE 24 35 13 19 1013.8 - 0.0
31/11:00pm 13.5 7.5 5.5 58 3.8 ENE 26 35 14 19 1014.4 - 0.0
31/10:30pm 13.5 7.8 4.9 56 4.0 ENE 24 35 13 19 1014.9 - 0.0
31/10:00pm 13.2 7.4 4.6 56 4.0 ENE 24 35 13 19 1015.1 - 0.0
31/09:30pm 13.5 7.7 4.4 54 4.2 ENE 24 32 13 17 1015.3 - 0.0
31/09:00pm 13.3 7.5 4.4 55 4.1 ENE 24 33 13 18 1015.4 1015.5 0.0
31/08:30pm 13.5 8.1 4.7 55 4.1 ENE 22 33 12 18 1015.4 - 0.0
31/08:00pm 13.5 8.1 4.4 54 4.2 ENE 22 30 12 16 1015.4 - 0.0
31/07:30pm 13.3 7.7 5.2 58 3.8 ENE 24 32 13 17 1015.2 - 0.0
31/07:00pm 13.3 7.9 6.5 63 3.3 ENE 24 32 13 17 1015.3 - 0.0
31/06:30pm 13.0 8.1 7.0 67 2.9 ENE 22 32 12 17 1015.4 - 0.0
31/06:00pm 12.9 7.7 7.2 68 2.8 ENE 24 32 13 17 1015.4 1015.5 0.0
31/05:30pm 13.2 8.8 8.9 75 2.2 ENE 22 30 12 16 1015.5 - 0.0
31/05:00pm 13.3 8.9 8.8 74 2.3 ENE 22 28 12 15 1015.5 - 0.0
31/04:30pm 13.8 9.7 8.7 71 2.6 ENE 20 28 11 15 1015.8 - 0.0
31/04:00pm 14.2 9.5 7.8 65 3.2 ENE 22 30 12 16 1016.0 - 0.0
31/03:30pm 15.0 10.8 8.1 63 3.5 NE 20 28 11 15 1016.2 - 0.0
31/03:00pm 16.0 11.4 6.4 53 4.7 ENE 20 30 11 16 1016.3 1016.5 0.0
31/02:30pm 15.5 10.9 8.2 62 3.7 ENE 22 30 12 16 1016.4 - 0.0
31/02:00pm 15.2 10.6 8.1 62 3.6 NE 22 30 12 16 1016.6 - 0.0
31/01:30pm 15.7 10.5 7.3 57 4.2 ENE 24 32 13 17 1016.9 - 0.0
31/01:00pm 15.0 10.2 7.4 60 3.8 ENE 22 32 12 17 1017.3 - 0.0
31/12:30pm 14.9 8.7 7.9 63 3.5 ENE 30 37 16 20 1017.6 - 0.0
31/12:00pm 15.1 9.7 8.2 63 3.5 ENE 26 35 14 19 1018.4 1018.6 0.0
31/11:30am 14.6 9.7 7.1 60 3.7 ENE 22 30 12 16 1019.2 - 0.0
31/11:00am 13.8 8.4 7.8 67 3.0 ENE 26 32 14 17 1019.4 - 0.0
31/10:30am 13.5 8.2 8.5 72 2.5 ENE 26 32 14 17 1019.6 - 0.0
31/10:00am 13.5 8.8 9.2 75 2.2 ENE 24 32 13 17 1019.6 - 0.0
31/09:30am 12.7 8.0 9.4 80 1.7 ENE 24 32 13 17 1019.7 - 0.0
31/09:00am 12.2 8.0 9.7 85 1.3 ENE 22 32 12 17 1019.8 1020.0 0.2
31/08:30am 11.4 7.1 9.4 87 1.0 ENE 22 33 12 18 1019.6 - 0.2
31/08:00am 10.8 6.4 9.0 89 0.9 ENE 22 30 12 16 1019.6 - 0.2
31/07:30am 10.2 5.8 8.8 91 0.7 ENE 22 30 12 16 1019.4 - 0.2
31/07:00am 9.6 4.9 7.9 89 0.8 ENE 22 32 12 17 1019.4 - 0.2
31/06:30am 9.1 4.4 7.9 92 0.6 ENE 22 30 12 16 1019.2 - 0.2
31/06:00am 9.1 4.5 8.3 95 0.4 ENE 22 30 12 16 1019.2 1019.4 0.2
31/05:30am 9.2 5.0 8.4 95 0.4 ENE 20 26 11 14 1019.5 - 0.0
31/05:00am 8.9 4.7 8.1 95 0.4 ENE 20 26 11 14 1019.5 - 0.0
31/04:30am 8.5 4.4 7.7 95 0.4 ENE 19 22 10 12 1019.4 - 0.0

Other Formats:

Comma delimited format used in spreadsheet applications
http://www.bom.gov.au/fwo/IDS60801/IDS60801.95805.axf

JavaScript Object Notation format (JSON) in row-major order
http://www.bom.gov.au/fwo/IDS60801/IDS60801.95805.json